createdAt,value
2022-10-08T00:06:08.858Z,19.43
2022-10-08T00:36:17.249Z,12.07
2022-10-08T01:06:35.612Z,8.33
2022-10-08T01:36:50.889Z,7.97
2022-10-08T02:07:08.918Z,8.57
2022-10-08T02:37:25.669Z,15.23
2022-10-08T03:07:36.216Z,13.50
2022-10-08T03:37:55.326Z,8.27
2022-10-08T04:08:03.821Z,8.77
2022-10-08T04:38:12.618Z,12.90
2022-10-08T05:08:20.816Z,7.37
2022-10-08T05:38:36.738Z,19.47
2022-10-08T06:08:46.443Z,12.83
2022-10-08T06:39:04.313Z,12.48
2022-10-08T07:09:20.141Z,6.60
2022-10-08T07:39:29.328Z,8.25
2022-10-08T08:09:37.661Z,16.05
2022-10-08T08:39:52.736Z,3.53
2022-10-08T09:10:09.439Z,3.30
2022-10-08T09:40:26.464Z,3.60
2022-10-08T10:10:43.065Z,8.57
2022-10-08T10:41:04.638Z,6.93
2022-10-08T11:11:33.169Z,7.95
2022-10-08T11:41:50.810Z,39.10
2022-10-08T12:12:02.183Z,11.30
2022-10-08T12:42:27.884Z,9.45
2022-10-08T13:12:40.546Z,8.15
2022-10-08T13:42:52.514Z,11.38
2022-10-08T14:13:03.071Z,13.15
2022-10-08T14:43:14.361Z,14.20
2022-10-08T15:13:22.923Z,12.52
2022-10-08T15:43:42.237Z,15.98
2022-10-08T16:13:56.144Z,62.58
2022-10-08T16:44:17.755Z,27.73
2022-10-08T17:14:30.501Z,32.23
2022-10-08T17:44:41.568Z,44.13
2022-10-08T18:14:57.363Z,26.53
2022-10-08T18:45:06.329Z,36.33
2022-10-08T19:15:15.259Z,40.43
2022-10-08T19:45:24.188Z,35.73
2022-10-08T20:15:40.419Z,52.17
2022-10-08T20:45:49.431Z,49.83
2022-10-08T21:16:10.231Z,50.23
2022-10-08T21:46:25.335Z,48.07
2022-10-08T22:16:34.122Z,36.07
2022-10-08T22:46:43.139Z,16.47
2022-10-08T23:16:57.795Z,19.50
2022-10-08T23:47:06.946Z,8.93
